createdAt,value
2022-12-18T00:02:19.364Z,80.85
2022-12-18T00:04:47.509Z,80.52
2022-12-18T00:07:15.635Z,80.88
2022-12-18T00:09:43.366Z,80.76
2022-12-18T00:14:43.632Z,80.95
2022-12-18T00:17:11.818Z,80.45
2022-12-18T00:19:39.719Z,80.98
2022-12-18T00:22:08.284Z,80.88
2022-12-18T00:24:36.016Z,81.02
2022-12-18T00:27:03.853Z,80.63
2022-12-18T00:29:32.553Z,80.30
2022-12-18T00:32:01.937Z,80.37
2022-12-18T00:34:29.892Z,80.39
2022-12-18T00:36:57.562Z,80.82
2022-12-18T00:39:25.404Z,80.43
2022-12-18T00:42:13.139Z,80.38
2022-12-18T00:44:41.126Z,80.15
2022-12-18T00:47:08.846Z,80.47
2022-12-18T00:49:37.130Z,80.29
2022-12-18T00:52:05.017Z,80.33
2022-12-18T00:54:33.596Z,80.22
2022-12-18T00:57:01.423Z,80.28
2022-12-18T00:59:29.438Z,79.98
2022-12-18T01:01:57.279Z,80.21
2022-12-18T01:04:25.551Z,80.33
2022-12-18T01:06:53.602Z,80.64
2022-12-18T01:09:21.328Z,80.25
2022-12-18T01:11:49.083Z,80.35
2022-12-18T01:14:16.910Z,80.41
2022-12-18T01:16:44.655Z,80.03
2022-12-18T01:19:13.498Z,80.33
2022-12-18T01:21:41.493Z,80.19
2022-12-18T01:24:09.361Z,80.33
2022-12-18T01:26:37.463Z,80.47
2022-12-18T01:29:05.265Z,80.24
2022-12-18T01:31:33.382Z,80.30
2022-12-18T01:34:01.408Z,80.05
2022-12-18T01:36:29.180Z,80.30
2022-12-18T01:38:56.961Z,80.11
2022-12-18T01:41:24.699Z,80.28
2022-12-18T01:43:52.456Z,80.18
2022-12-18T01:46:20.245Z,80.22
2022-12-18T01:48:47.975Z,80.03
2022-12-18T01:51:15.755Z,79.98
2022-12-18T01:53:43.498Z,79.94
2022-12-18T01:56:12.206Z,80.43
2022-12-18T01:58:40.200Z,80.12
2022-12-18T02:01:08.102Z,80.06
2022-12-18T02:03:36.077Z,80.61
2022-12-18T02:06:03.983Z,80.11
2022-12-18T02:08:32.037Z,80.15
2022-12-18T02:11:01.366Z,80.02
2022-12-18T02:13:29.133Z,80.09
2022-12-18T02:15:56.871Z,80.07
2022-12-18T02:18:24.636Z,80.16
2022-12-18T02:20:52.811Z,80.20
2022-12-18T02:23:20.804Z,80.26
2022-12-18T02:25:48.549Z,80.10
2022-12-18T02:28:16.347Z,80.10
2022-12-18T02:30:44.227Z,80.38
2022-12-18T02:33:12.396Z,80.21
2022-12-18T02:35:40.221Z,80.42
2022-12-18T02:38:07.989Z,80.17
2022-12-18T02:40:35.771Z,80.15
2022-12-18T02:43:03.619Z,80.22
2022-12-18T02:45:31.391Z,80.07
2022-12-18T02:47:59.470Z,80.37
2022-12-18T02:50:27.256Z,80.04
2022-12-18T02:52:54.996Z,79.89
2022-12-18T02:55:23.179Z,79.74
2022-12-18T02:57:51.340Z,80.31
2022-12-18T03:00:19.017Z,80.14
2022-12-18T03:02:47.507Z,80.04
2022-12-18T03:05:15.406Z,79.93
2022-12-18T03:07:43.213Z,79.88
2022-12-18T03:10:11.391Z,80.36
2022-12-18T03:12:39.252Z,79.91
2022-12-18T03:15:07.072Z,79.84
2022-12-18T03:17:34.782Z,80.02
2022-12-18T03:20:02.650Z,79.96
2022-12-18T03:22:30.722Z,80.02
2022-12-18T03:24:58.695Z,79.62
2022-12-18T03:27:26.476Z,80.00
2022-12-18T03:29:54.222Z,79.75
2022-12-18T03:32:21.991Z,79.87
2022-12-18T03:34:50.160Z,79.75
2022-12-18T03:37:19.358Z,79.55
2022-12-18T03:39:47.091Z,79.63
2022-12-18T03:42:14.883Z,79.51
2022-12-18T03:44:42.646Z,79.41
2022-12-18T03:47:10.363Z,79.50
2022-12-18T03:49:38.099Z,79.26
2022-12-18T03:52:05.866Z,79.41
2022-12-18T03:54:33.568Z,79.85
2022-12-18T03:57:01.383Z,80.15
2022-12-18T03:59:29.845Z,80.00
2022-12-18T04:01:59.150Z,80.16
2022-12-18T04:04:26.938Z,80.22
2022-12-18T04:06:54.605Z,80.61
2022-12-18T04:09:22.265Z,80.14
2022-12-18T04:11:50.335Z,80.39
2022-12-18T04:14:18.685Z,80.15
2022-12-18T04:16:46.651Z,79.91
2022-12-18T04:19:14.431Z,80.26
2022-12-18T04:21:42.566Z,80.54
2022-12-18T04:24:10.900Z,80.14
2022-12-18T04:26:39.530Z,79.91
2022-12-18T04:29:07.173Z,79.86
2022-12-18T04:31:34.929Z,80.11
2022-12-18T04:34:02.840Z,80.60
2022-12-18T04:36:30.878Z,79.99
2022-12-18T04:38:58.608Z,80.04
2022-12-18T04:41:26.292Z,79.88
2022-12-18T04:43:54.268Z,79.97
2022-12-18T04:46:22.015Z,80.03
2022-12-18T04:48:50.117Z,79.83
2022-12-18T04:51:19.890Z,79.92
2022-12-18T04:53:52.406Z,79.78
2022-12-18T04:56:20.049Z,79.88
2022-12-18T04:58:47.718Z,79.75
2022-12-18T05:01:15.757Z,79.85
2022-12-18T05:03:44.207Z,79.54
2022-12-18T05:06:12.670Z,79.87
2022-12-18T05:08:40.408Z,79.95
2022-12-18T05:11:08.886Z,79.89
2022-12-18T05:13:37.162Z,79.56
2022-12-18T05:16:05.372Z,79.67
2022-12-18T05:18:33.107Z,79.99
2022-12-18T05:21:00.766Z,79.75
2022-12-18T05:23:28.520Z,80.09
2022-12-18T05:25:56.565Z,79.65
2022-12-18T05:28:26.199Z,79.83
2022-12-18T05:30:53.999Z,79.87
2022-12-18T05:33:21.703Z,79.89
2022-12-18T05:35:49.433Z,80.00
2022-12-18T05:38:17.190Z,79.98
2022-12-18T05:40:45.585Z,79.90
2022-12-18T05:43:16.605Z,79.70
2022-12-18T05:45:48.592Z,80.22
2022-12-18T05:48:16.307Z,79.67
2022-12-18T05:50:44.359Z,79.55
2022-12-18T05:53:12.858Z,79.59
2022-12-18T05:55:40.557Z,80.15
2022-12-18T05:58:08.249Z,79.95
2022-12-18T06:00:36.030Z,80.08
2022-12-18T06:03:04.242Z,79.81
2022-12-18T06:05:32.263Z,80.11
2022-12-18T06:07:59.992Z,79.45
2022-12-18T06:10:27.633Z,79.52
2022-12-18T06:12:55.741Z,79.96
2022-12-18T06:15:23.812Z,79.97
2022-12-18T06:17:51.632Z,79.93
2022-12-18T06:20:19.359Z,79.95
2022-12-18T06:22:47.086Z,79.38
2022-12-18T06:25:14.755Z,79.66
2022-12-18T06:27:42.878Z,79.70
2022-12-18T06:30:11.079Z,79.56
2022-12-18T06:32:38.872Z,79.16
2022-12-18T06:35:06.966Z,79.74
2022-12-18T06:37:34.692Z,79.50
2022-12-18T06:40:03.184Z,79.09
2022-12-18T06:42:30.849Z,79.72
2022-12-18T06:44:58.655Z,79.59
2022-12-18T06:47:26.345Z,79.55
2022-12-18T06:49:53.981Z,79.45
2022-12-18T06:52:21.780Z,79.82
2022-12-18T06:54:49.463Z,79.64
2022-12-18T06:57:19.001Z,79.75
2022-12-18T06:59:46.753Z,79.54
2022-12-18T07:02:15.432Z,79.61
2022-12-18T07:04:43.515Z,79.79
2022-12-18T07:07:11.618Z,79.37
2022-12-18T07:09:39.307Z,79.62
2022-12-18T07:12:07.974Z,79.33
2022-12-18T07:14:35.772Z,79.45
2022-12-18T07:17:03.890Z,79.19
2022-12-18T07:19:31.676Z,79.33
2022-12-18T07:22:00.087Z,78.94
2022-12-18T07:24:27.825Z,79.47
2022-12-18T07:26:55.548Z,79.56
2022-12-18T07:29:23.880Z,79.55
2022-12-18T07:31:51.733Z,79.34
2022-12-18T07:34:19.506Z,79.48
2022-12-18T07:36:47.303Z,79.37
2022-12-18T07:39:15.087Z,79.24
2022-12-18T07:41:47.701Z,79.62
2022-12-18T07:44:15.526Z,79.61
2022-12-18T07:46:43.347Z,79.65
2022-12-18T07:49:11.140Z,79.34
2022-12-18T07:51:39.102Z,79.39
2022-12-18T07:54:07.321Z,79.54
2022-12-18T07:56:35.027Z,78.78
2022-12-18T07:59:02.779Z,78.95
2022-12-18T08:01:30.615Z,79.34
2022-12-18T08:03:58.805Z,78.82
2022-12-18T08:06:27.348Z,79.40
2022-12-18T08:08:55.216Z,79.00
2022-12-18T08:11:22.942Z,78.88
2022-12-18T08:13:50.737Z,78.67
2022-12-18T08:16:18.501Z,78.40
2022-12-18T08:18:46.869Z,78.14
2022-12-18T08:21:14.918Z,78.13
2022-12-18T08:23:43.471Z,77.75
2022-12-18T08:26:11.966Z,77.64
2022-12-18T08:28:39.863Z,77.55
2022-12-18T08:31:08.150Z,77.48
2022-12-18T08:33:36.205Z,77.60
2022-12-18T08:36:04.117Z,77.35
2022-12-18T08:38:31.766Z,76.70
2022-12-18T08:40:59.543Z,76.75
2022-12-18T08:43:44.860Z,76.42
2022-12-18T08:46:17.405Z,76.34
2022-12-18T08:48:45.370Z,76.54
2022-12-18T08:51:13.396Z,76.23
2022-12-18T08:53:41.436Z,75.74
2022-12-18T08:56:09.747Z,75.39
2022-12-18T08:58:37.797Z,75.74
2022-12-18T09:01:05.514Z,74.91
2022-12-18T09:03:33.823Z,75.44
2022-12-18T09:06:02.016Z,74.98
2022-12-18T09:08:30.599Z,75.44
2022-12-18T09:10:58.552Z,75.51
2022-12-18T09:13:26.492Z,74.95
2022-12-18T09:15:54.285Z,74.80
2022-12-18T09:18:22.053Z,74.47
2022-12-18T09:20:51.803Z,75.01
2022-12-18T09:23:19.932Z,74.54
2022-12-18T09:25:47.789Z,73.67
2022-12-18T09:28:15.755Z,73.52
2022-12-18T09:30:44.091Z,72.76
2022-12-18T09:33:12.677Z,72.17
2022-12-18T09:35:41.131Z,72.29
2022-12-18T09:38:09.939Z,71.54
2022-12-18T09:40:37.896Z,71.24
2022-12-18T09:43:08.268Z,71.25
2022-12-18T09:45:37.058Z,71.71
2022-12-18T09:48:06.504Z,71.38
2022-12-18T09:50:34.500Z,69.87
2022-12-18T09:53:03.270Z,70.40
2022-12-18T09:55:36.924Z,69.42
2022-12-18T09:58:06.221Z,68.66
2022-12-18T10:00:35.822Z,68.57
2022-12-18T10:03:04.028Z,67.96
2022-12-18T10:05:31.946Z,67.69
2022-12-18T10:07:59.887Z,67.30
2022-12-18T10:10:28.343Z,67.02
2022-12-18T10:13:04.143Z,66.06
2022-12-18T10:15:32.725Z,66.12
2022-12-18T10:18:00.470Z,66.25
2022-12-18T10:20:28.684Z,66.89
2022-12-18T10:22:56.909Z,67.16
2022-12-18T10:25:24.763Z,67.09
2022-12-18T10:27:52.805Z,67.32
2022-12-18T10:30:20.752Z,66.72
2022-12-18T10:32:49.130Z,67.32
2022-12-18T10:35:17.087Z,66.68
2022-12-18T10:37:45.120Z,66.62
2022-12-18T10:40:18.277Z,66.71
2022-12-18T10:42:49.968Z,67.17
2022-12-18T10:45:18.884Z,67.02
2022-12-18T10:47:46.671Z,66.58
2022-12-18T10:50:14.661Z,66.34
2022-12-18T10:52:45.184Z,66.36
2022-12-18T10:55:15.440Z,65.91
2022-12-18T10:57:43.542Z,66.13
2022-12-18T11:00:12.067Z,65.87
2022-12-18T11:02:40.267Z,65.95
2022-12-18T11:05:08.289Z,66.07
2022-12-18T11:07:36.163Z,65.91
2022-12-18T11:10:04.049Z,65.97
2022-12-18T11:12:31.979Z,65.58
2022-12-18T11:15:01.213Z,66.16
2022-12-18T11:17:29.168Z,65.87
2022-12-18T11:19:57.511Z,65.58
2022-12-18T11:22:25.852Z,66.12
2022-12-18T11:25:29.678Z,65.46
2022-12-18T11:27:41.896Z,65.99
2022-12-18T11:30:10.296Z,66.23
2022-12-18T11:32:38.562Z,66.05
2022-12-18T11:35:06.939Z,66.28
2022-12-18T11:37:34.874Z,65.04
2022-12-18T11:40:03.153Z,65.90
2022-12-18T11:42:31.274Z,65.32
2022-12-18T11:44:59.791Z,65.78
2022-12-18T11:47:29.780Z,65.84
2022-12-18T11:49:58.397Z,65.64
2022-12-18T11:52:26.470Z,65.81
2022-12-18T11:54:55.161Z,65.69
2022-12-18T11:57:24.802Z,66.48
2022-12-18T11:59:52.725Z,65.61
2022-12-18T12:02:20.807Z,65.63
2022-12-18T12:04:49.168Z,65.64
2022-12-18T12:07:17.710Z,65.80
2022-12-18T12:09:45.841Z,65.89
2022-12-18T12:12:14.690Z,66.12
2022-12-18T12:14:42.741Z,66.11
2022-12-18T12:17:10.659Z,66.49
2022-12-18T12:19:38.901Z,65.67
2022-12-18T12:22:06.863Z,66.53
2022-12-18T12:24:34.862Z,65.73
2022-12-18T12:27:02.846Z,65.45
2022-12-18T12:29:30.954Z,66.07
2022-12-18T12:31:59.476Z,65.95
2022-12-18T12:34:27.954Z,66.11
2022-12-18T12:36:55.858Z,65.88
2022-12-18T12:39:23.872Z,66.46
2022-12-18T12:42:09.496Z,66.20
2022-12-18T12:44:37.818Z,66.76
2022-12-18T12:47:06.080Z,66.74
2022-12-18T12:49:40.321Z,65.77
2022-12-18T12:52:08.747Z,65.91
2022-12-18T12:54:37.131Z,65.62
2022-12-18T12:57:05.155Z,65.82
2022-12-18T12:59:33.068Z,65.74
2022-12-18T13:02:01.611Z,65.36
2022-12-18T13:04:30.313Z,65.18
2022-12-18T13:06:58.883Z,65.13
2022-12-18T13:09:27.978Z,65.15
2022-12-18T13:12:13.958Z,65.06
2022-12-18T13:14:42.020Z,65.45
2022-12-18T13:17:10.422Z,66.04
2022-12-18T13:19:38.864Z,65.38
2022-12-18T13:22:07.058Z,65.76
2022-12-18T13:24:35.649Z,65.18
2022-12-18T13:27:04.355Z,65.09
2022-12-18T13:29:33.313Z,65.80
2022-12-18T13:32:01.799Z,65.52
2022-12-18T13:34:31.064Z,65.63
2022-12-18T13:37:00.885Z,64.90
2022-12-18T13:39:34.293Z,64.86
2022-12-18T13:42:03.645Z,64.61
2022-12-18T13:44:35.886Z,65.03
2022-12-18T13:47:06.785Z,65.05
2022-12-18T13:49:34.716Z,64.42
2022-12-18T13:52:03.084Z,63.85
2022-12-18T13:54:31.468Z,64.10
2022-12-18T13:56:59.411Z,64.20
2022-12-18T13:59:27.458Z,64.18
2022-12-18T14:01:55.998Z,64.33
2022-12-18T14:04:24.785Z,64.01
2022-12-18T14:06:53.610Z,64.00
2022-12-18T14:09:21.798Z,63.92
2022-12-18T14:11:49.905Z,64.32
2022-12-18T14:14:17.839Z,64.32
2022-12-18T14:16:46.071Z,64.65
2022-12-18T14:19:15.861Z,64.36
2022-12-18T14:21:43.715Z,64.28
2022-12-18T14:24:11.682Z,64.17
2022-12-18T14:26:39.779Z,64.52
2022-12-18T14:29:09.836Z,64.93
2022-12-18T14:31:38.266Z,64.45
2022-12-18T14:34:06.185Z,64.35
2022-12-18T14:36:34.089Z,64.15
2022-12-18T14:39:02.029Z,63.74
2022-12-18T14:41:30.515Z,63.46
2022-12-18T14:43:59.030Z,62.67
2022-12-18T14:46:27.107Z,61.76
2022-12-18T14:48:55.014Z,61.87
2022-12-18T14:51:22.860Z,61.42
2022-12-18T14:53:54.759Z,61.19
2022-12-18T14:56:22.959Z,61.25
2022-12-18T14:58:51.130Z,60.87
2022-12-18T15:01:19.180Z,61.01
2022-12-18T15:03:47.258Z,61.75
2022-12-18T15:06:15.567Z,62.04
2022-12-18T15:08:45.269Z,61.82
2022-12-18T15:11:13.327Z,62.07
2022-12-18T15:13:42.380Z,62.44
2022-12-18T15:16:10.634Z,62.14
2022-12-18T15:18:38.860Z,62.64
2022-12-18T15:21:07.178Z,61.75
2022-12-18T15:23:35.346Z,62.03
2022-12-18T15:26:04.422Z,61.90
2022-12-18T15:28:32.950Z,61.22
2022-12-18T15:31:01.105Z,60.35
2022-12-18T15:33:29.973Z,60.96
2022-12-18T15:35:58.397Z,60.60
2022-12-18T15:38:26.600Z,60.25
2022-12-18T15:40:54.533Z,60.00
2022-12-18T15:43:36.773Z,59.62
2022-12-18T15:46:05.011Z,59.67
2022-12-18T15:48:32.817Z,59.25
2022-12-18T15:51:00.958Z,59.63
2022-12-18T15:53:29.146Z,59.84
2022-12-18T15:56:14.827Z,59.54
2022-12-18T15:58:43.098Z,59.45
2022-12-18T16:01:11.086Z,59.52
2022-12-18T16:03:39.652Z,59.68
2022-12-18T16:06:07.941Z,59.77
2022-12-18T16:08:36.856Z,58.93
2022-12-18T16:11:05.231Z,59.20
2022-12-18T16:13:33.004Z,58.90
2022-12-18T16:16:00.918Z,58.24
2022-12-18T16:18:29.024Z,58.63
2022-12-18T16:20:57.429Z,57.85
2022-12-18T16:23:25.652Z,58.07
2022-12-18T16:25:53.897Z,58.14
2022-12-18T16:28:21.921Z,57.67
2022-12-18T16:30:49.791Z,57.24
2022-12-18T16:33:18.472Z,57.55
2022-12-18T16:35:46.326Z,57.46
2022-12-18T16:38:14.587Z,58.16
2022-12-18T16:41:03.603Z,57.61
2022-12-18T16:43:31.771Z,58.18
2022-12-18T16:45:59.963Z,58.07
2022-12-18T16:48:28.123Z,57.88
2022-12-18T16:50:57.302Z,58.96
2022-12-18T16:53:25.319Z,58.40
2022-12-18T16:55:53.345Z,59.00
2022-12-18T16:58:22.579Z,58.75
2022-12-18T17:00:50.414Z,59.20
2022-12-18T17:03:18.484Z,58.87
2022-12-18T17:05:51.497Z,59.49
2022-12-18T17:08:21.423Z,59.55
2022-12-18T17:10:49.630Z,59.38
2022-12-18T17:13:20.254Z,59.41
2022-12-18T17:15:52.272Z,60.00
2022-12-18T17:18:20.142Z,59.56
2022-12-18T17:20:48.373Z,59.84
2022-12-18T17:23:16.473Z,60.48
2022-12-18T17:25:44.350Z,60.25
2022-12-18T17:28:12.470Z,60.23
2022-12-18T17:30:40.430Z,60.70
2022-12-18T17:33:08.815Z,60.54
2022-12-18T17:35:37.462Z,61.08
2022-12-18T17:38:05.903Z,61.39
2022-12-18T17:40:34.235Z,61.44
2022-12-18T17:43:02.129Z,61.73
2022-12-18T17:45:30.553Z,61.53
2022-12-18T17:48:00.058Z,61.92
2022-12-18T17:50:28.023Z,62.03
2022-12-18T17:52:56.033Z,62.87
2022-12-18T17:55:23.804Z,62.52
2022-12-18T17:57:52.353Z,62.47
2022-12-18T18:00:20.647Z,62.67
2022-12-18T18:02:48.980Z,63.42
2022-12-18T18:05:16.982Z,63.31
2022-12-18T18:07:44.904Z,63.63
2022-12-18T18:10:13.168Z,63.68
2022-12-18T18:13:09.739Z,63.71
2022-12-18T18:15:39.702Z,63.54
2022-12-18T18:18:07.663Z,63.69
2022-12-18T18:20:37.061Z,63.96
2022-12-18T18:23:05.498Z,63.13
2022-12-18T18:25:33.551Z,64.32
2022-12-18T18:28:01.702Z,63.38
2022-12-18T18:30:30.542Z,63.99
2022-12-18T18:32:59.300Z,64.01
2022-12-18T18:35:52.998Z,63.89
2022-12-18T18:38:15.643Z,64.33
2022-12-18T18:40:43.545Z,64.28
2022-12-18T18:43:11.818Z,64.21
2022-12-18T18:45:39.707Z,64.62
2022-12-18T18:48:09.202Z,64.11
2022-12-18T18:50:37.171Z,64.55
2022-12-18T18:53:05.198Z,64.15
2022-12-18T18:55:33.812Z,64.91
2022-12-18T18:58:01.735Z,64.36
2022-12-18T19:00:31.580Z,64.39
2022-12-18T19:03:00.938Z,65.01
2022-12-18T19:05:29.499Z,64.49
2022-12-18T19:07:57.511Z,65.10
2022-12-18T19:10:25.438Z,65.09
2022-12-18T19:13:10.617Z,65.09
2022-12-18T19:15:39.195Z,64.92
2022-12-18T19:18:07.097Z,65.48
2022-12-18T19:20:35.361Z,65.67
2022-12-18T19:23:03.348Z,65.44
2022-12-18T19:25:40.548Z,65.71
2022-12-18T19:28:21.214Z,65.24
2022-12-18T19:30:50.237Z,65.02
2022-12-18T19:33:41.996Z,65.50
2022-12-18T19:36:07.116Z,65.73
2022-12-18T19:38:37.809Z,64.94
2022-12-18T19:41:05.852Z,65.00
2022-12-18T19:43:36.134Z,65.58
2022-12-18T19:46:05.100Z,65.95
2022-12-18T19:48:33.065Z,65.03
2022-12-18T19:51:01.671Z,65.68
2022-12-18T19:53:29.525Z,65.17
2022-12-18T19:55:57.633Z,65.64
2022-12-18T19:58:25.533Z,65.50
2022-12-18T20:00:53.472Z,65.09
2022-12-18T20:03:28.864Z,64.88
2022-12-18T20:06:00.280Z,64.98
2022-12-18T20:08:28.087Z,65.10
2022-12-18T20:10:56.045Z,64.65
2022-12-18T20:13:25.380Z,64.95
2022-12-18T20:15:55.397Z,64.36
2022-12-18T20:18:23.254Z,64.65
2022-12-18T20:20:51.516Z,64.89
2022-12-18T20:23:20.230Z,64.89
2022-12-18T20:25:48.819Z,64.78
2022-12-18T20:28:17.333Z,64.40
2022-12-18T20:30:45.239Z,64.84
2022-12-18T20:33:13.237Z,64.19
2022-12-18T20:35:41.350Z,65.14
2022-12-18T20:38:09.909Z,64.20
2022-12-18T20:40:39.098Z,64.01
2022-12-18T20:43:07.440Z,64.65
2022-12-18T20:45:35.227Z,64.42
2022-12-18T20:48:04.342Z,64.31
2022-12-18T20:50:32.892Z,64.50
2022-12-18T20:53:00.760Z,64.58
2022-12-18T20:55:28.682Z,64.88
2022-12-18T20:57:56.480Z,64.50
2022-12-18T21:00:24.261Z,64.61
2022-12-18T21:02:52.941Z,63.87
2022-12-18T21:05:20.885Z,63.72
2022-12-18T21:07:48.985Z,64.06
2022-12-18T21:10:16.794Z,63.70
2022-12-18T21:12:48.264Z,64.29
2022-12-18T21:15:25.314Z,63.67
2022-12-18T21:17:56.513Z,63.20
2022-12-18T21:20:24.713Z,63.70
2022-12-18T21:22:52.668Z,63.25
2022-12-18T21:25:24.084Z,64.04
2022-12-18T21:27:51.884Z,63.59
2022-12-18T21:30:19.792Z,63.12
2022-12-18T21:32:48.114Z,63.27
2022-12-18T21:35:16.091Z,63.76
2022-12-18T21:37:45.393Z,64.01
2022-12-18T21:40:13.349Z,63.93
2022-12-18T21:42:58.468Z,63.71
2022-12-18T21:45:26.630Z,64.78
2022-12-18T21:47:55.060Z,64.76
2022-12-18T21:50:22.992Z,64.67
2022-12-18T21:52:51.291Z,64.19
2022-12-18T21:55:19.147Z,65.00
2022-12-18T21:57:46.938Z,64.97
2022-12-18T22:00:18.452Z,64.43
2022-12-18T22:02:47.345Z,64.34
2022-12-18T22:05:15.200Z,63.80
2022-12-18T22:07:43.168Z,63.24
2022-12-18T22:10:11.077Z,63.95
2022-12-18T22:12:43.584Z,63.55
2022-12-18T22:15:14.745Z,63.72
2022-12-18T22:17:49.573Z,63.98
2022-12-18T22:20:17.481Z,63.86
2022-12-18T22:22:48.985Z,63.92
2022-12-18T22:25:16.748Z,64.25
2022-12-18T22:28:04.519Z,63.72
2022-12-18T22:30:31.282Z,63.81
2022-12-18T22:33:01.055Z,64.04
2022-12-18T22:35:28.838Z,63.70
2022-12-18T22:37:58.168Z,63.60
2022-12-18T22:40:25.965Z,63.86
2022-12-18T22:42:54.347Z,64.32
2022-12-18T22:45:22.579Z,64.01
2022-12-18T22:47:50.472Z,64.33
2022-12-18T22:50:18.240Z,64.79
2022-12-18T22:52:46.098Z,64.72
2022-12-18T22:55:14.323Z,65.45
2022-12-18T22:57:45.039Z,64.80
2022-12-18T23:00:16.904Z,65.32
2022-12-18T23:02:48.701Z,65.52
2022-12-18T23:05:17.078Z,65.83
2022-12-18T23:07:45.296Z,65.54
2022-12-18T23:10:13.031Z,65.94
2022-12-18T23:12:40.704Z,66.08
2022-12-18T23:15:08.392Z,66.00
2022-12-18T23:17:36.105Z,66.39
2022-12-18T23:20:04.398Z,67.18
2022-12-18T23:22:32.175Z,66.70
2022-12-18T23:24:59.936Z,66.93
2022-12-18T23:27:27.574Z,67.52
2022-12-18T23:29:55.492Z,67.83
2022-12-18T23:32:26.579Z,68.67
2022-12-18T23:34:54.241Z,68.31
2022-12-18T23:37:49.826Z,68.76
2022-12-18T23:40:09.877Z,68.91
2022-12-18T23:42:37.838Z,68.81
2022-12-18T23:45:14.225Z,69.57
2022-12-18T23:47:47.925Z,70.04
2022-12-18T23:50:18.618Z,69.83
2022-12-18T23:52:46.852Z,69.81
2022-12-18T23:55:14.476Z,70.03
2022-12-18T23:57:42.462Z,70.04
